createdAt,value
2023-04-10T00:02:46.019Z,73.10
2023-04-10T00:07:38.960Z,73.42
2023-04-10T00:12:31.726Z,73.35
2023-04-10T00:17:24.498Z,72.73
2023-04-10T00:22:17.231Z,73.40
2023-04-10T00:27:10.032Z,73.03
2023-04-10T00:32:02.779Z,72.81
2023-04-10T00:36:55.519Z,73.20
2023-04-10T00:41:48.492Z,73.19
2023-04-10T00:46:41.753Z,73.57
2023-04-10T00:51:34.684Z,73.55
2023-04-10T00:56:27.450Z,73.43
2023-04-10T01:01:20.171Z,72.82
2023-04-10T01:06:33.181Z,73.12
2023-04-10T01:11:28.620Z,73.02
2023-04-10T01:16:37.466Z,73.68
2023-04-10T01:21:31.579Z,74.01
2023-04-10T01:26:37.946Z,73.46
2023-04-10T01:31:37.098Z,73.32
2023-04-10T01:36:33.172Z,73.13
2023-04-10T01:41:27.727Z,73.50
2023-04-10T01:46:22.909Z,74.18
2023-04-10T01:51:16.880Z,74.45
2023-04-10T01:56:10.072Z,74.20
2023-04-10T02:01:19.218Z,73.74
2023-04-10T02:06:19.411Z,73.66
2023-04-10T02:11:12.123Z,73.88
2023-04-10T02:16:08.566Z,73.81
2023-04-10T02:21:01.799Z,74.05
2023-04-10T02:25:56.526Z,74.09
2023-04-10T02:30:49.234Z,74.05
2023-04-10T02:35:42.401Z,73.92
2023-04-10T02:40:35.387Z,73.86
2023-04-10T02:45:41.962Z,74.20
2023-04-10T02:50:36.388Z,74.41
2023-04-10T02:55:29.213Z,74.16
2023-04-10T03:00:22.115Z,74.47
2023-04-10T03:05:44.141Z,74.39
2023-04-10T03:10:37.345Z,74.60
2023-04-10T03:15:30.136Z,74.96
2023-04-10T03:20:23.359Z,74.18
2023-04-10T03:25:16.108Z,74.59
2023-04-10T03:30:09.764Z,74.36
2023-04-10T03:35:06.157Z,74.43
2023-04-10T03:39:58.917Z,74.72
2023-04-10T03:44:51.706Z,74.81
2023-04-10T03:49:45.113Z,74.97
2023-04-10T03:54:37.935Z,74.75
2023-04-10T03:59:38.165Z,75.08
2023-04-10T04:04:33.633Z,75.04
2023-04-10T04:09:49.358Z,74.77
2023-04-10T04:14:59.350Z,74.78
2023-04-10T04:20:30.611Z,75.43
2023-04-10T04:25:37.756Z,75.64
2023-04-10T04:31:08.443Z,75.59
2023-04-10T04:36:27.745Z,75.98
2023-04-10T04:41:32.677Z,75.66
2023-04-10T04:47:03.715Z,75.64
2023-04-10T04:52:14.897Z,75.81
2023-04-10T04:57:14.960Z,75.83
2023-04-10T05:02:26.595Z,75.76
2023-04-10T05:07:34.450Z,75.77
2023-04-10T05:12:41.223Z,75.79
2023-04-10T05:17:51.075Z,75.70
2023-04-10T05:23:02.851Z,75.69
2023-04-10T05:28:21.178Z,75.65
2023-04-10T05:33:19.731Z,75.64
2023-04-10T05:38:30.179Z,75.75
2023-04-10T05:43:37.822Z,75.74
2023-04-10T05:48:52.069Z,75.66
2023-04-10T05:54:00.335Z,76.20
2023-04-10T05:59:07.496Z,77.57
2023-04-10T06:04:19.188Z,78.04
2023-04-10T06:09:15.139Z,78.19
2023-04-10T06:14:08.126Z,78.16
2023-04-10T06:19:05.613Z,78.46
2023-04-10T06:23:58.349Z,78.20
2023-04-10T06:28:51.158Z,78.17
2023-04-10T06:33:44.837Z,77.95
2023-04-10T06:38:38.386Z,77.71
2023-04-10T06:43:32.224Z,76.48
2023-04-10T06:48:24.896Z,76.34
2023-04-10T06:53:17.634Z,76.60
2023-04-10T06:58:10.373Z,76.67
2023-04-10T07:03:03.219Z,76.85
2023-04-10T07:07:56.084Z,76.76
2023-04-10T07:12:48.793Z,76.38
2023-04-10T07:17:41.634Z,75.76
2023-04-10T07:22:34.455Z,70.53
2023-04-10T07:27:27.973Z,64.92
2023-04-10T07:32:20.752Z,61.65
2023-04-10T07:37:13.561Z,56.95
2023-04-10T07:42:07.737Z,53.77
2023-04-10T07:47:00.463Z,54.55
2023-04-10T07:51:53.158Z,52.62
2023-04-10T07:56:46.161Z,51.33
2023-04-10T08:01:38.891Z,50.38
2023-04-10T08:06:32.367Z,49.85
2023-04-10T08:11:27.565Z,49.97
2023-04-10T08:16:22.155Z,51.05
2023-04-10T08:21:14.862Z,50.08
2023-04-10T08:26:07.792Z,49.21
2023-04-10T08:31:00.504Z,46.91
2023-04-10T08:35:53.249Z,45.90
2023-04-10T08:40:45.938Z,46.79
2023-04-10T08:45:38.612Z,46.37
2023-04-10T08:50:33.922Z,45.45
2023-04-10T08:55:27.289Z,45.49
2023-04-10T09:00:22.946Z,44.80
2023-04-10T09:05:16.501Z,45.50
2023-04-10T09:10:09.880Z,42.92
2023-04-10T09:15:02.591Z,43.11
2023-04-10T09:19:56.355Z,43.42
2023-04-10T09:24:49.399Z,43.76
2023-04-10T09:29:48.554Z,43.86
2023-04-10T09:34:54.974Z,43.27
2023-04-10T09:39:47.792Z,42.00
2023-04-10T09:44:41.242Z,39.33
2023-04-10T09:49:45.778Z,38.49
2023-04-10T09:54:39.168Z,37.93
2023-04-10T09:59:32.265Z,37.71
2023-04-10T10:04:25.859Z,36.26
2023-04-10T10:09:18.563Z,34.95
2023-04-10T10:14:16.433Z,33.12
2023-04-10T10:19:26.688Z,32.10
2023-04-10T10:24:21.772Z,31.94
2023-04-10T10:29:17.511Z,30.45
2023-04-10T10:34:11.245Z,29.25
2023-04-10T10:39:28.016Z,29.04
2023-04-10T10:44:53.278Z,29.39
2023-04-10T10:49:56.485Z,31.84
2023-04-10T10:54:57.265Z,34.07
2023-04-10T10:59:52.340Z,34.14
2023-04-10T11:04:46.479Z,33.64
2023-04-10T11:09:49.586Z,32.12
2023-04-10T11:14:43.746Z,31.06
2023-04-10T11:20:00.477Z,31.87
2023-04-10T11:24:58.679Z,33.85
2023-04-10T11:29:51.457Z,34.82
2023-04-10T11:34:47.276Z,34.89
2023-04-10T11:39:39.975Z,33.76
2023-04-10T11:44:35.431Z,33.70
2023-04-10T11:49:29.292Z,34.83
2023-04-10T11:54:23.042Z,36.49
2023-04-10T11:59:20.099Z,37.64
2023-04-10T12:04:17.268Z,38.56
2023-04-10T12:09:21.365Z,39.32
2023-04-10T12:14:14.103Z,40.02
2023-04-10T12:19:06.837Z,41.08
2023-04-10T12:23:59.566Z,41.33
2023-04-10T12:28:54.791Z,41.80
2023-04-10T12:33:47.818Z,41.66
2023-04-10T12:38:42.061Z,41.21
2023-04-10T12:43:36.124Z,41.02
2023-04-10T12:48:29.048Z,42.23
2023-04-10T12:53:21.804Z,44.52
2023-04-10T12:58:20.247Z,45.64
2023-04-10T13:03:16.486Z,45.32
2023-04-10T13:08:09.410Z,46.01
2023-04-10T13:13:02.624Z,47.18
2023-04-10T13:17:55.393Z,47.69
2023-04-10T13:22:48.067Z,46.78
2023-04-10T13:27:40.781Z,45.73
2023-04-10T13:32:33.838Z,44.04
2023-04-10T13:37:27.386Z,43.93
2023-04-10T13:42:20.059Z,44.59
2023-04-10T13:47:12.895Z,44.96
2023-04-10T13:52:05.888Z,45.18
2023-04-10T13:56:59.435Z,45.34
2023-04-10T14:01:52.753Z,46.05
2023-04-10T14:06:45.760Z,46.78
2023-04-10T14:11:38.424Z,46.51
2023-04-10T14:16:31.180Z,45.54
2023-04-10T14:21:24.017Z,45.61
2023-04-10T14:26:16.694Z,45.81
2023-04-10T14:31:09.472Z,45.78
2023-04-10T14:36:02.267Z,45.36
2023-04-10T14:40:54.985Z,44.62
2023-04-10T14:45:47.779Z,44.82
2023-04-10T14:50:40.568Z,44.44
2023-04-10T14:55:33.297Z,43.74
2023-04-10T15:00:26.458Z,43.38
2023-04-10T15:05:19.268Z,43.18
2023-04-10T15:10:12.810Z,42.28
2023-04-10T15:15:05.844Z,41.81
2023-04-10T15:19:58.743Z,41.12
2023-04-10T15:24:51.425Z,40.85
2023-04-10T15:29:44.519Z,40.71
2023-04-10T15:34:37.490Z,40.85
2023-04-10T15:39:31.028Z,40.42
2023-04-10T15:44:23.731Z,41.18
2023-04-10T15:49:29.781Z,41.52
2023-04-10T15:54:29.693Z,41.58
2023-04-10T15:59:22.437Z,42.13
2023-04-10T16:04:19.077Z,42.36
2023-04-10T16:09:24.111Z,42.96
2023-04-10T16:14:19.089Z,43.61
2023-04-10T16:19:12.000Z,44.20
2023-04-10T16:24:04.834Z,44.59
2023-04-10T16:28:57.544Z,44.72
2023-04-10T16:33:50.418Z,45.15
2023-04-10T16:38:43.797Z,45.50
2023-04-10T16:43:36.538Z,45.82
2023-04-10T16:48:29.303Z,46.48
2023-04-10T16:53:22.833Z,47.09
2023-04-10T16:58:20.304Z,47.98
2023-04-10T17:03:15.601Z,48.69
2023-04-10T17:08:08.706Z,49.41
2023-04-10T17:13:01.423Z,50.17
2023-04-10T17:17:54.503Z,50.72
2023-04-10T17:22:47.521Z,51.41
2023-04-10T17:27:40.990Z,52.09
2023-04-10T17:32:33.901Z,52.68
2023-04-10T17:37:26.634Z,53.08
2023-04-10T17:42:20.483Z,53.73
2023-04-10T17:47:13.242Z,54.03
2023-04-10T17:52:06.559Z,54.39
2023-04-10T17:56:59.301Z,54.94
2023-04-10T18:01:52.066Z,55.35
2023-04-10T18:06:45.288Z,55.82
2023-04-10T18:11:38.063Z,56.35
2023-04-10T18:16:31.276Z,56.80
2023-04-10T18:21:25.658Z,57.07
2023-04-10T18:26:21.025Z,57.17
2023-04-10T18:31:16.187Z,57.90
2023-04-10T18:36:11.034Z,58.54
2023-04-10T18:41:03.826Z,58.95
2023-04-10T18:45:56.664Z,59.14
2023-04-10T18:50:51.929Z,59.24
2023-04-10T18:55:50.633Z,59.33
2023-04-10T19:00:43.888Z,59.64
2023-04-10T19:05:36.569Z,59.92
2023-04-10T19:10:29.276Z,60.02
2023-04-10T19:15:22.065Z,60.47
2023-04-10T19:20:14.794Z,60.74
2023-04-10T19:25:08.726Z,61.21
2023-04-10T19:30:01.413Z,61.45
2023-04-10T19:34:54.154Z,61.69
2023-04-10T19:39:46.862Z,61.99
2023-04-10T19:44:39.987Z,62.28
2023-04-10T19:49:33.220Z,62.34
2023-04-10T19:54:26.241Z,62.63
2023-04-10T19:59:18.997Z,62.86
2023-04-10T20:04:11.800Z,62.83
2023-04-10T20:09:04.593Z,63.08
2023-04-10T20:14:00.594Z,63.17
2023-04-10T20:18:54.359Z,63.33
2023-04-10T20:23:47.295Z,63.51
2023-04-10T20:28:40.783Z,63.69
2023-04-10T20:33:33.432Z,63.99
2023-04-10T20:38:26.178Z,64.33
2023-04-10T20:43:19.210Z,64.33
2023-04-10T20:48:12.057Z,64.43
2023-04-10T20:53:04.940Z,64.74
2023-04-10T20:57:58.175Z,64.91
2023-04-10T21:02:51.105Z,64.86
2023-04-10T21:07:45.972Z,65.14
2023-04-10T21:12:38.641Z,65.50
2023-04-10T21:17:31.858Z,65.55
2023-04-10T21:22:24.604Z,65.58
2023-04-10T21:27:17.401Z,65.86
2023-04-10T21:32:10.611Z,65.97
2023-04-10T21:37:04.043Z,66.05
2023-04-10T21:41:57.558Z,66.16
2023-04-10T21:46:50.307Z,66.35
2023-04-10T21:51:43.065Z,66.53
2023-04-10T21:56:36.958Z,66.73
2023-04-10T22:01:30.241Z,66.90
2023-04-10T22:06:23.293Z,66.79
2023-04-10T22:11:16.323Z,67.03
2023-04-10T22:16:09.155Z,67.31
2023-04-10T22:21:01.934Z,67.17
2023-04-10T22:25:54.602Z,67.45
2023-04-10T22:30:47.462Z,67.45
2023-04-10T22:35:40.781Z,67.37
2023-04-10T22:40:33.638Z,67.36
2023-04-10T22:45:29.446Z,67.40
2023-04-10T22:50:22.238Z,67.90
2023-04-10T22:55:17.443Z,68.00
2023-04-10T23:00:10.572Z,68.02
2023-04-10T23:05:03.291Z,68.38
2023-04-10T23:09:56.016Z,68.10
2023-04-10T23:14:48.724Z,68.29
2023-04-10T23:19:41.448Z,68.12
2023-04-10T23:24:34.127Z,68.52
2023-04-10T23:29:26.885Z,68.38
2023-04-10T23:34:20.949Z,68.48
2023-04-10T23:39:13.815Z,68.62
2023-04-10T23:44:06.497Z,68.87
2023-04-10T23:48:59.205Z,68.94
2023-04-10T23:53:51.876Z,68.88
2023-04-10T23:58:44.601Z,68.99
